This is the latest recevied weather packets stored in our database for station/object K9JVA. If no packets are shown the sender has not sent any weather packets the latest 10 day(s).
| Time | Temp. | Humidity | Pressure | Rain* | Wind** | Luminosity | Snow |
|---|---|---|---|---|---|---|---|
| 1777299103 | 18.89° C | 70% | 1016.7 hPa | 0 mm | - | - | - |
| 1777297485 | 16.67° C | 73% | 1016.7 hPa | 0 mm | - | - | - |
| 1777297184 | 16.67° C | 73% | 1016.7 hPa | 0 mm | - | - | - |
| 1777295085 | 16.11° C | 76% | 1017 hPa | 0 mm | - | - | - |
| 1777291006 | 10.56° C | 88% | 1017.1 hPa | 0 mm | - | - | - |
| 1777288547 | 8.33° C | 92% | 1017.1 hPa | 0 mm | - | - | - |
| 1777285331 | 7.78° C | 90% | 1017.1 hPa | 0 mm | - | - | - |
| 1777284888 | 7.78° C | 90% | 1017.1 hPa | 0 mm | - | - | - |
| 1777283988 | 7.78° C | 90% | 1017.3 hPa | 0 mm | - | - | - |
| 1777283089 | 7.78° C | 89% | 1017.4 hPa | 0 mm | - | - | - |
| 1777282270 | 8.33° C | 89% | 1017.6 hPa | 0 mm | - | - | - |
| 1777281831 | 8.33° C | 89% | 1017.7 hPa | 0 mm | - | - | - |
| 1777278711 | 8.89° C | 88% | 1017.2 hPa | 0 mm | - | - | - |
| 1777276749 | 8.89° C | 89% | 1016.9 hPa | 0 mm | - | - | - |
| 1777276311 | 8.89° C | 89% | 1016.9 hPa | 0 mm | - | - | - |
| 1777275651 | 8.89° C | 89% | 1017 hPa | 0 mm | - | - | - |
| 1777273851 | 9.44° C | 89% | 1017.1 hPa | 0 mm | - | - | - |
| 1777273551 | 8.89° C | 89% | 1017 hPa | 0 mm | - | - | - |
| 1777271993 | 8.89° C | 88% | 1017.2 hPa | 0 mm | - | - | - |
| 1777271393 | 8.89° C | 88% | 1017.4 hPa | 0 mm | - | - | - |
| 1777270194 | 9.44° C | 87% | 1017.5 hPa | 0 mm | - | - | - |
| 1777269616 | 9.44° C | 86% | 1017.7 hPa | 0 mm | - | - | - |
| 1777268873 | 9.44° C | 86% | 1017.6 hPa | 0 mm | - | - | - |
| 1777268573 | 9.44° C | 86% | 1017.7 hPa | 0 mm | - | - | - |
| 1777268273 | 10° C | 86% | 1017.8 hPa | 0 mm | - | - | - |
* Rain since midnight (hover to see other rain measurements)
** Current wind speed in m/s (hover to see current wind gust speed)